Time;durP1;ratioP1;P1;durP2;ratioP2;P2;SDS_P1;SDS_P2;PMS_P1;PMS_P2;Temp;Humidity;BMP_temperature;BMP_pressure;BME280_temperature;BME280_humidity;BME280_pressure;Samples;Min_cycle;Max_cycle;Signal;HPM_P1;HPM_P2
2022/03/27 00:00:25;;;;;;;12.23;8.68;;;;;;;9.20;79.53;103116.78;5068914;28;20092;-75
2022/03/27 00:02:51;;;;;;;15.60;9.85;;;;;;;9.18;79.72;103116.81;5067811;28;20496;-75
2022/03/27 00:05:17;;;;;;;21.35;12.52;;;;;;;9.16;79.55;103118.66;5068320;28;20016;-75
2022/03/27 00:07:42;;;;;;;15.68;9.02;;;;;;;9.15;79.96;103114.31;5068193;28;20043;-76
2022/03/27 00:10:08;;;;;;;14.30;9.05;;;;;;;9.14;80.10;103117.84;5069877;28;20097;-75
2022/03/27 00:12:33;;;;;;;19.33;11.70;;;;;;;9.15;80.57;103123.94;5069452;28;20032;-75
2022/03/27 00:15:01;;;;;;;16.73;10.50;;;;;;;9.11;80.54;103123.19;5069726;28;20021;-75
2022/03/27 00:17:29;;;;;;;15.35;8.32;;;;;;;9.11;80.35;103123.19;5068762;28;20120;-76
2022/03/27 00:19:55;;;;;;;12.68;7.45;;;;;;;9.10;80.42;103118.84;5101316;28;20020;-75
2022/03/27 00:22:20;;;;;;;15.10;9.93;;;;;;;9.08;80.61;103118.88;5069569;28;20093;-76
2022/03/27 00:24:46;;;;;;;12.00;9.10;;;;;;;9.06;80.83;103118.09;5069414;28;20031;-75
2022/03/27 00:27:11;;;;;;;9.80;6.75;;;;;;;9.08;80.81;103118.03;5068899;28;20025;-75
2022/03/27 00:29:37;;;;;;;10.00;7.38;;;;;;;9.06;81.54;103119.84;5069681;28;20032;-75
2022/03/27 00:32:03;;;;;;;10.27;7.70;;;;;;;9.04;80.84;103112.03;5068747;28;20035;-75
2022/03/27 00:34:29;;;;;;;12.85;8.45;;;;;;;9.03;81.22;103109.44;5068671;28;20534;-75
2022/03/27 00:36:54;;;;;;;12.68;8.07;;;;;;;9.03;81.27;103122.56;5065416;28;20017;-75
2022/03/27 00:39:20;;;;;;;13.00;7.90;;;;;;;9.00;81.30;103114.78;5047454;28;20036;-75
2022/03/27 00:41:45;;;;;;;10.07;7.15;;;;;;;8.98;81.43;103106.97;5058603;28;20111;-76
2022/03/27 00:44:11;;;;;;;9.15;7.18;;;;;;;8.96;81.22;103111.41;5069161;28;20031;-75
2022/03/27 00:46:36;;;;;;;10.68;7.40;;;;;;;8.94;81.67;103107.13;5069085;28;20031;-76
2022/03/27 00:49:03;;;;;;;13.20;8.40;;;;;;;8.90;81.85;103108.13;5069035;28;20028;-75
2022/03/27 00:51:28;;;;;;;13.25;8.18;;;;;;;8.85;82.02;103110.03;5069741;28;20103;-76
2022/03/27 00:53:54;;;;;;;9.77;7.00;;;;;;;8.84;82.13;103114.41;5067927;28;20111;-76
2022/03/27 00:56:19;;;;;;;12.25;7.53;;;;;;;8.80;82.02;103112.75;5100739;28;20020;-76
2022/03/27 00:58:44;;;;;;;11.23;7.30;;;;;;;8.71;82.03;103113.03;5068239;28;20040;-76
2022/03/27 01:01:11;;;;;;;8.65;6.97;;;;;;;8.70;82.09;103116.56;5099748;28;20036;-75
2022/03/27 01:03:37;;;;;;;13.48;8.25;;;;;;;8.63;82.55;103110.66;5070815;28;20518;-75
2022/03/27 01:06:03;;;;;;;13.73;8.27;;;;;;;8.60;82.32;103110.75;5068214;28;20115;-76
2022/03/27 01:11:21;;;;;;;10.93;7.50;;;;;;;8.54;82.97;103103.06;5068229;28;20034;-76
2022/03/27 01:13:55;;;;;;;10.63;7.20;;;;;;;8.51;82.99;103108.41;5067033;28;20028;-75
2022/03/27 01:16:38;;;;;;;10.60;7.38;;;;;;;8.49;82.95;103104.94;5066121;28;20347;-75
2022/03/27 01:19:05;;;;;;;9.57;7.18;;;;;;;8.46;83.43;103107.66;5100518;28;20502;-75
2022/03/27 01:21:31;;;;;;;11.02;7.68;;;;;;;8.44;83.59;103106.84;5067714;28;20052;-76
2022/03/27 01:23:57;;;;;;;11.43;7.88;;;;;;;8.40;83.78;103105.19;5066763;28;20443;-75
2022/03/27 01:26:23;;;;;;;11.98;7.32;;;;;;;8.37;83.58;103102.66;5067968;28;20107;-75
2022/03/27 01:28:50;;;;;;;11.38;8.05;;;;;;;8.30;83.51;103106.34;5067303;28;20024;-76
2022/03/27 01:31:15;;;;;;;11.18;8.07;;;;;;;8.19;83.64;103109.25;5055638;28;20759;-75
2022/03/27 01:33:41;;;;;;;10.52;8.30;;;;;;;8.12;83.73;103113.81;5047522;28;20052;-76
2022/03/27 01:36:06;;;;;;;9.75;8.57;;;;;;;8.08;84.39;103113.94;5047075;28;20029;-76
2022/03/27 01:38:31;;;;;;;12.55;8.63;;;;;;;8.04;84.36;103107.94;5063866;28;20421;-76
2022/03/27 01:40:57;;;;;;;10.85;8.07;;;;;;;7.99;84.22;103109.78;5063619;28;20029;-76
2022/03/27 01:43:23;;;;;;;12.30;8.20;;;;;;;7.95;84.55;103116.00;5046038;28;20381;-75
2022/03/27 01:45:49;;;;;;;10.48;8.20;;;;;;;7.89;84.23;103100.47;5050503;28;20500;-75
2022/03/27 01:48:15;;;;;;;10.25;7.40;;;;;;;7.87;84.56;103107.50;5050241;28;20032;-75
2022/03/27 01:50:40;;;;;;;11.50;8.18;;;;;;;7.81;84.38;103105.91;5050810;28;20512;-76
2022/03/27 01:53:06;;;;;;;13.32;8.55;;;;;;;7.78;84.23;103107.75;5051416;28;20056;-75
2022/03/27 01:55:31;;;;;;;10.55;7.97;;;;;;;7.73;84.35;103109.63;5052019;28;20051;-74
2022/03/27 01:57:57;;;;;;;10.07;7.88;;;;;;;7.67;84.22;103115.03;5051640;28;20037;-76
2022/03/27 02:00:22;;;;;;;12.15;8.57;;;;;;;7.64;84.40;103108.13;5052844;28;20025;-75
2022/03/27 02:02:47;;;;;;;12.52;8.98;;;;;;;7.58;84.43;103105.63;5069393;28;20105;-75
2022/03/27 02:05:13;;;;;;;12.98;8.55;;;;;;;7.55;84.12;103106.56;5070217;28;20040;-75
2022/03/27 02:07:42;;;;;;;15.07;8.55;;;;;;;7.50;84.40;103103.19;5071868;28;20024;-76
2022/03/27 02:10:08;;;;;;;11.68;9.25;;;;;;;7.44;84.61;103103.34;5088030;28;20024;-76
2022/03/27 02:12:35;;;;;;;13.40;8.65;;;;;;;7.42;84.78;103105.16;5070969;28;20074;-75
2022/03/27 02:15:08;;;;;;;13.90;9.07;;;;;;;7.38;84.50;103106.13;5072644;28;20075;-75
2022/03/27 02:17:38;;;;;;;14.57;9.68;;;;;;;7.32;84.78;103098.44;5054395;28;20036;-75
2022/03/27 02:20:05;;;;;;;11.95;9.10;;;;;;;7.30;85.00;103105.47;5071201;28;20029;-75
2022/03/27 02:22:31;;;;;;;13.52;9.15;;;;;;;7.25;85.03;103102.09;5072761;28;20473;-76
2022/03/27 02:24:56;;;;;;;14.80;9.20;;;;;;;7.23;85.09;103101.28;5070337;28;20032;-75
2022/03/27 02:27:22;;;;;;;16.02;10.23;;;;;;;7.21;85.27;103095.22;5072436;28;20108;-76
2022/03/27 02:29:47;;;;;;;15.15;9.95;;;;;;;7.22;85.92;103094.31;5072171;28;20035;-76
2022/03/27 02:32:14;;;;;;;15.73;10.27;;;;;;;7.19;85.92;103092.59;5071443;28;20028;-75
2022/03/27 02:34:40;;;;;;;13.23;9.73;;;;;;;7.21;86.36;103097.84;5070706;28;20048;-76
2022/03/27 02:37:06;;;;;;;14.00;10.65;;;;;;;7.20;87.16;103099.59;5067732;28;20025;-75
2022/03/27 02:39:32;;;;;;;17.35;10.75;;;;;;;7.21;88.01;103096.06;5051828;28;20060;-75
2022/03/27 02:41:57;;;;;;;15.95;10.82;;;;;;;7.23;88.38;103098.66;5079467;28;20484;-75
2022/03/27 02:44:23;;;;;;;16.60;12.15;;;;;;;7.28;88.78;103102.03;5072022;28;20024;-75
2022/03/27 02:46:48;;;;;;;17.60;13.98;;;;;;;7.31;88.99;103096.72;5070783;28;20047;-76
2022/03/27 02:49:13;;;;;;;19.73;14.57;;;;;;;7.37;89.65;103107.03;5071484;28;20416;-75
2022/03/27 02:51:40;;;;;;;21.65;16.88;;;;;;;7.41;89.67;103106.06;5070824;28;20020;-75
2022/03/27 02:54:06;;;;;;;23.02;17.00;;;;;;;7.42;90.25;103094.69;5070675;28;20028;-75
2022/03/27 02:56:32;;;;;;;22.23;16.45;;;;;;;7.45;90.21;103094.59;5068975;28;20111;-75
2022/03/27 02:58:57;;;;;;;26.05;16.92;;;;;;;7.49;90.66;103096.25;5069762;28;20115;-75
2022/03/27 03:01:23;;;;;;;24.92;18.27;;;;;;;7.52;91.17;103096.16;5070262;28;20498;-75
2022/03/27 03:03:49;;;;;;;24.38;18.35;;;;;;;7.55;91.22;103089.97;5069360;28;20402;-75
2022/03/27 03:06:14;;;;;;;25.88;19.27;;;;;;;7.57;91.59;103097.81;5070634;28;20021;-75
2022/03/27 03:08:40;;;;;;;25.83;19.58;;;;;;;7.58;91.71;103095.13;5069922;28;20368;-75
2022/03/27 03:11:06;;;;;;;26.95;19.85;;;;;;;7.60;91.92;103100.34;5069106;28;20020;-75
2022/03/27 03:13:31;;;;;;;31.38;19.50;;;;;;;7.62;91.79;103091.56;5071000;28;20021;-75
2022/03/27 03:15:57;;;;;;;26.38;19.58;;;;;;;7.63;92.00;103092.44;5068793;28;20306;-75
2022/03/27 03:18:24;;;;;;;24.83;20.15;;;;;;;7.64;92.26;103091.53;5069332;28;20078;-75
2022/03/27 03:20:50;;;;;;;24.40;19.27;;;;;;;7.65;92.37;103093.25;5069923;28;20429;-75
2022/03/27 03:23:16;;;;;;;25.90;18.85;;;;;;;7.65;92.71;103090.63;5070325;28;20391;-76
2022/03/27 03:25:42;;;;;;;25.95;19.67;;;;;;;7.65;92.57;103091.50;5070315;28;20031;-74
2022/03/27 03:28:09;;;;;;;25.13;19.38;;;;;;;7.65;92.41;103085.41;5069395;28;20103;-74
2022/03/27 03:30:34;;;;;;;26.10;19.45;;;;;;;7.67;92.32;103091.44;5070665;28;20107;-77
2022/03/27 03:33:00;;;;;;;24.77;19.10;;;;;;;7.66;92.32;103082.72;5069907;28;20029;-77
2022/03/27 03:35:25;;;;;;;23.20;19.17;;;;;;;7.69;92.52;103081.78;5068291;28;20067;-78
2022/03/27 03:37:50;;;;;;;29.63;20.23;;;;;;;7.69;92.51;103076.56;5069894;28;20066;-77
2022/03/27 03:40:16;;;;;;;26.77;19.48;;;;;;;7.70;92.67;103084.38;5068793;28;20025;-77
2022/03/27 03:42:42;;;;;;;28.65;20.58;;;;;;;7.70;92.77;103078.28;5050982;28;20020;-75
2022/03/27 03:45:07;;;;;;;28.73;20.75;;;;;;;7.70;93.07;103079.13;5048668;28;20025;-76
2022/03/27 03:47:33;;;;;;;24.58;19.25;;;;;;;7.72;92.58;103076.47;5050675;28;20029;-76
2022/03/27 03:49:58;;;;;;;25.95;20.52;;;;;;;7.72;92.84;103081.72;5048921;28;20381;-75
2022/03/27 03:52:23;;;;;;;24.63;19.70;;;;;;;7.73;92.69;103081.66;5050531;28;20120;-75
2022/03/27 03:54:49;;;;;;;26.67;19.85;;;;;;;7.72;92.58;103076.47;5049523;28;20091;-75
2022/03/27 03:57:15;;;;;;;24.85;20.20;;;;;;;7.75;92.42;103081.63;5049930;28;20173;-75
2022/03/27 03:59:41;;;;;;;25.80;19.73;;;;;;;7.76;92.60;103083.34;5049408;28;20075;-75
2022/03/27 04:02:07;;;;;;;25.90;20.65;;;;;;;7.75;92.85;103089.50;5059332;28;20113;-76
2022/03/27 04:04:34;;;;;;;28.92;20.40;;;;;;;7.75;92.88;103086.88;5069588;28;20043;-75
2022/03/27 04:07:01;;;;;;;27.98;20.92;;;;;;;7.75;92.94;103098.22;5069139;28;20024;-75
2022/03/27 04:09:28;;;;;;;29.50;21.92;;;;;;;7.77;92.63;103079.81;5067791;28;20085;-75
2022/03/27 04:11:53;;;;;;;26.92;20.73;;;;;;;7.78;92.62;103092.03;5085434;28;20020;-77
2022/03/27 04:14:19;;;;;;;26.67;20.85;;;;;;;7.77;92.75;103090.31;5070412;28;20362;-77
2022/03/27 04:16:44;;;;;;;27.42;21.48;;;;;;;7.77;92.97;103095.56;5086050;28;20166;-77
2022/03/27 04:19:11;;;;;;;27.58;21.13;;;;;;;7.77;93.10;103087.69;5068767;28;20059;-75
2022/03/27 04:21:37;;;;;;;26.02;21.20;;;;;;;7.77;92.83;103090.31;5069787;28;20021;-75
2022/03/27 04:24:03;;;;;;;29.83;22.15;;;;;;;7.76;93.11;103089.44;5084159;28;20028;-75
2022/03/27 04:26:28;;;;;;;28.33;21.13;;;;;;;7.77;93.00;103079.81;5069758;28;20028;-75
2022/03/27 04:28:54;;;;;;;25.63;20.42;;;;;;;7.78;92.69;103081.53;5067643;28;20119;-75
2022/03/27 04:31:20;;;;;;;26.80;21.63;;;;;;;7.79;92.59;103081.50;5084016;28;20045;-75
2022/03/27 04:33:45;;;;;;;27.20;21.48;;;;;;;7.78;93.12;103078.91;5083919;28;20048;-75
2022/03/27 04:36:11;;;;;;;26.55;20.80;;;;;;;7.77;93.34;103079.81;5068951;28;20103;-76
2022/03/27 04:38:38;;;;;;;26.45;21.30;;;;;;;7.78;93.01;103081.53;5068363;28;20055;-75
2022/03/27 04:41:04;;;;;;;26.92;20.85;;;;;;;7.77;93.20;103078.06;5062868;28;20395;-75
2022/03/27 04:43:32;;;;;;;26.27;20.88;;;;;;;7.77;93.38;103085.06;5048063;28;20439;-76
2022/03/27 04:45:58;;;;;;;26.50;20.50;;;;;;;7.77;93.30;103079.81;5047270;28;20021;-76
2022/03/27 04:48:25;;;;;;;27.55;21.73;;;;;;;7.77;93.37;103085.06;5049022;28;20053;-75
2022/03/27 04:50:51;;;;;;;26.58;20.73;;;;;;;7.76;92.92;103081.59;5048942;28;20056;-75
2022/03/27 04:53:17;;;;;;;28.17;21.23;;;;;;;7.75;93.37;103079.88;5048317;28;20051;-75
2022/03/27 04:55:42;;;;;;;27.83;21.30;;;;;;;7.76;93.28;103083.34;5048017;28;20032;-75
2022/03/27 04:58:09;;;;;;;25.65;21.27;;;;;;;7.75;93.67;103079.00;5049598;28;20025;-75
2022/03/27 05:00:35;;;;;;;28.02;21.80;;;;;;;7.76;93.42;103088.59;5048193;28;20031;-75
2022/03/27 05:03:01;;;;;;;26.50;21.92;;;;;;;7.75;93.56;103087.72;5075612;28;20466;-75
2022/03/27 05:05:26;;;;;;;28.58;22.88;;;;;;;7.75;93.56;103087.72;5068855;28;20021;-75
2022/03/27 05:07:53;;;;;;;29.60;22.85;;;;;;;7.76;93.26;103099.06;5069322;28;20530;-76
2022/03/27 05:10:19;;;;;;;29.30;22.75;;;;;;;7.75;93.40;103095.59;5069751;28;20390;-75
2022/03/27 05:12:45;;;;;;;27.70;22.42;;;;;;;7.74;93.39;103098.25;5069706;28;20028;-75
2022/03/27 05:15:11;;;;;;;28.25;22.00;;;;;;;7.74;93.08;103095.63;5067770;28;20067;-76
2022/03/27 05:17:55;;;;;;;29.92;22.25;;;;;;;7.75;93.13;103100.84;5069734;28;20056;-75
2022/03/27 05:20:21;;;;;;;27.20;21.27;;;;;;;7.72;93.26;103100.91;5071012;28;20847;-75
2022/03/27 05:22:47;;;;;;;30.02;22.90;;;;;;;7.71;93.13;103106.19;5072298;28;20109;-75
2022/03/27 05:25:15;;;;;;;29.90;22.98;;;;;;;7.71;93.55;103107.06;5088774;28;20051;-75
2022/03/27 05:27:50;;;;;;;29.75;23.58;;;;;;;7.72;93.73;103108.78;5072326;28;20476;-75
2022/03/27 05:30:17;;;;;;;31.48;24.52;;;;;;;7.71;93.70;103107.06;5072538;28;20078;-75
2022/03/27 05:32:43;;;;;;;31.95;24.83;;;;;;;7.71;93.94;103106.19;5087947;28;20024;-75
2022/03/27 05:35:09;;;;;;;30.45;24.17;;;;;;;7.71;93.95;103109.66;5071524;28;20048;-75
2022/03/27 05:37:35;;;;;;;31.98;24.15;;;;;;;7.72;93.91;103102.66;5072827;28;20028;-75
2022/03/27 05:40:03;;;;;;;32.85;24.40;;;;;;;7.69;93.80;103106.22;5072491;28;20074;-76
2022/03/27 05:42:29;;;;;;;32.15;24.58;;;;;;;7.72;93.64;103113.16;5070906;28;20032;-75
2022/03/27 05:44:54;;;;;;;32.28;25.75;;;;;;;7.71;93.73;103112.28;5088147;28;20388;-75
2022/03/27 05:47:19;;;;;;;32.53;24.65;;;;;;;7.73;93.91;103114.88;5072431;28;20054;-75
2022/03/27 05:49:44;;;;;;;34.47;25.92;;;;;;;7.71;93.90;103106.19;5071795;28;20550;-75
2022/03/27 05:52:14;;;;;;;35.90;26.27;;;;;;;7.69;94.05;103108.84;5072202;28;20024;-75
2022/03/27 05:54:40;;;;;;;35.38;26.17;;;;;;;7.69;94.25;103114.09;5071836;28;20029;-75
2022/03/27 05:57:05;;;;;;;34.78;25.77;;;;;;;7.67;94.21;103109.78;5071486;28;20163;-75
2022/03/27 05:59:31;;;;;;;32.47;25.15;;;;;;;7.66;94.07;103113.31;5072119;28;20042;-75
2022/03/27 06:01:56;;;;;;;31.23;23.95;;;;;;;7.64;93.75;103117.72;5071451;28;20280;-75
2022/03/27 06:04:22;;;;;;;29.67;23.20;;;;;;;7.63;93.70;103119.50;5069492;28;20037;-75
2022/03/27 06:06:47;;;;;;;31.80;23.65;;;;;;;7.60;93.77;103127.41;5070027;28;20016;-75
2022/03/27 06:09:13;;;;;;;28.95;22.85;;;;;;;7.61;93.51;103133.53;5070066;28;20024;-75
2022/03/27 06:11:39;;;;;;;29.77;22.23;;;;;;;7.60;93.14;103134.41;5070310;28;20472;-75
2022/03/27 06:14:04;;;;;;;30.55;22.23;;;;;;;7.58;93.47;103136.19;5072173;28;20028;-75
2022/03/27 06:16:30;;;;;;;28.70;20.38;;;;;;;7.55;93.22;103140.63;5071788;28;20028;-75
2022/03/27 06:18:56;;;;;;;26.13;20.05;;;;;;;7.54;93.25;103132.78;5070929;28;20033;-75
2022/03/27 06:21:21;;;;;;;26.10;19.23;;;;;;;7.52;93.05;103132.84;5071774;28;20029;-75
2022/03/27 06:23:47;;;;;;;28.60;19.08;;;;;;;7.50;92.92;103129.41;5071290;28;20476;-75
2022/03/27 06:26:13;;;;;;;27.08;19.05;;;;;;;7.50;92.68;103137.25;5071888;28;20029;-75
2022/03/27 06:28:39;;;;;;;26.60;19.02;;;;;;;7.48;92.85;103140.81;5053861;28;20043;-76
2022/03/27 06:31:04;;;;;;;26.80;18.50;;;;;;;7.47;93.06;103136.47;5068729;28;20066;-75
2022/03/27 06:33:30;;;;;;;29.42;19.40;;;;;;;7.44;92.81;103142.63;5070422;28;20052;-75
2022/03/27 06:35:55;;;;;;;30.10;20.15;;;;;;;7.42;92.69;103139.19;5071802;28;20553;-75
2022/03/27 06:38:21;;;;;;;32.08;20.40;;;;;;;7.39;93.17;103136.66;5056563;28;20028;-75
2022/03/27 06:40:47;;;;;;;32.65;21.98;;;;;;;7.38;93.37;103142.78;5051338;28;20032;-75
2022/03/27 06:43:12;;;;;;;34.17;21.48;;;;;;;7.39;93.53;103141.03;5069818;28;20021;-75
2022/03/27 06:45:38;;;;;;;39.05;22.85;;;;;;;7.39;93.50;103143.66;5069256;28;20020;-75
2022/03/27 06:48:05;;;;;;;38.10;23.83;;;;;;;7.37;93.48;103148.94;5070792;28;20484;-75
2022/03/27 06:50:30;;;;;;;35.38;23.05;;;;;;;7.37;93.60;103150.69;5069582;28;20032;-75
2022/03/27 06:52:56;;;;;;;35.72;23.30;;;;;;;7.37;93.69;103143.69;5068850;28;20422;-75
2022/03/27 06:55:22;;;;;;;38.15;23.50;;;;;;;7.36;93.82;103147.22;5069299;28;20031;-75
2022/03/27 06:57:48;;;;;;;37.33;23.88;;;;;;;7.36;93.83;103147.22;5069135;28;20024;-75
2022/03/27 07:03:02;;;;;;;38.47;23.65;;;;;;;7.39;93.63;103147.13;5071446;28;20128;-75
2022/03/27 07:05:34;;;;;;;39.33;23.90;;;;;;;7.39;93.59;103147.13;5070615;28;20025;-75
2022/03/27 07:07:59;;;;;;;42.25;25.63;;;;;;;7.38;93.97;103145.41;5068507;28;20107;-76
2022/03/27 07:10:26;;;;;;;39.03;24.63;;;;;;;7.40;94.11;103142.75;5069922;28;20603;-75
2022/03/27 07:12:52;;;;;;;40.22;24.45;;;;;;;7.40;94.14;103148.84;5069651;28;20032;-75
2022/03/27 07:15:18;;;;;;;40.90;24.25;;;;;;;7.41;93.81;103144.47;5068774;28;20020;-75
2022/03/27 07:17:48;;;;;;;39.33;23.30;;;;;;;7.41;93.88;103145.34;5070092;28;20114;-76
2022/03/27 07:20:24;;;;;;;39.38;23.88;;;;;;;7.40;93.75;103148.84;5069694;28;20027;-75
2022/03/27 07:22:51;;;;;;;40.60;24.38;;;;;;;7.39;93.63;103144.50;5069136;28;20022;-75
2022/03/27 07:25:16;;;;;;;40.83;24.52;;;;;;;7.39;93.93;103138.41;5069401;28;20422;-75
2022/03/27 07:27:42;;;;;;;42.60;25.20;;;;;;;7.40;93.81;103143.63;5070321;28;20033;-75
2022/03/27 07:30:08;;;;;;;43.97;25.23;;;;;;;7.40;94.20;103148.84;5069257;28;20112;-75
2022/03/27 07:32:34;;;;;;;43.63;25.33;;;;;;;7.41;94.03;103144.47;5070886;28;20074;-75
2022/03/27 07:34:59;;;;;;;48.30;26.80;;;;;;;7.43;94.22;103147.91;5068495;28;20053;-75
2022/03/27 07:37:25;;;;;;;48.35;27.27;;;;;;;7.43;94.09;103145.28;5063673;28;20611;-75
2022/03/27 07:39:50;;;;;;;48.10;27.08;;;;;;;7.44;94.29;103147.88;5050550;28;20480;-75
2022/03/27 07:42:16;;;;;;;50.45;27.38;;;;;;;7.47;94.52;103153.03;5064281;28;20051;-75
2022/03/27 07:44:41;;;;;;;49.63;28.52;;;;;;;7.45;94.39;103152.22;5070241;28;20058;-75
2022/03/27 07:47:07;;;;;;;50.05;28.55;;;;;;;7.45;94.14;103152.22;5070359;28;20441;-75
2022/03/27 07:49:32;;;;;;;52.10;29.85;;;;;;;7.44;94.37;103145.25;5070085;28;20492;-76
2022/03/27 07:52:00;;;;;;;52.08;28.92;;;;;;;7.46;94.38;103147.84;5070450;28;20472;-76
2022/03/27 07:54:26;;;;;;;50.40;29.23;;;;;;;7.46;94.35;103151.31;5068702;28;20024;-76
2022/03/27 07:56:52;;;;;;;49.70;27.63;;;;;;;7.47;94.38;103142.56;5068418;28;20094;-75
2022/03/27 07:59:17;;;;;;;48.90;27.02;;;;;;;7.48;94.48;103146.91;5069544;28;20476;-76
2022/03/27 08:01:42;;;;;;;43.78;25.90;;;;;;;7.49;94.02;103139.91;5069047;28;20029;-76
2022/03/27 08:04:08;;;;;;;46.42;27.15;;;;;;;7.50;93.93;103145.09;5069823;28;20036;-75
2022/03/27 08:06:36;;;;;;;49.13;26.67;;;;;;;7.51;94.14;103152.06;5069552;28;20029;-76
2022/03/27 08:09:06;;;;;;;43.85;25.25;;;;;;;7.50;94.14;103142.50;5101302;28;20031;-76
2022/03/27 08:11:32;;;;;;;43.80;25.50;;;;;;;7.52;93.92;103147.69;5067994;28;20047;-75
2022/03/27 08:13:57;;;;;;;42.78;26.17;;;;;;;7.52;93.84;103142.44;5069196;28;20028;-76
2022/03/27 08:16:22;;;;;;;43.72;25.85;;;;;;;7.52;93.61;103148.56;5068379;28;20094;-76
2022/03/27 08:18:48;;;;;;;43.53;25.40;;;;;;;7.52;93.27;103140.69;5069102;28;20032;-76
2022/03/27 08:21:13;;;;;;;48.13;26.80;;;;;;;7.54;93.66;103146.75;5068830;28;20036;-76
2022/03/27 08:23:39;;;;;;;45.03;26.65;;;;;;;7.55;93.52;103143.22;5068479;28;20089;-75
2022/03/27 08:28:48;;;;;;;46.60;27.40;;;;;;;7.55;93.22;103148.47;5069037;28;20498;-76
2022/03/27 08:31:13;;;;;;;45.47;26.50;;;;;;;7.59;93.58;103153.63;5068276;28;20028;-76
2022/03/27 08:33:39;;;;;;;46.55;26.75;;;;;;;7.60;93.27;103150.13;5068986;28;20059;-76
2022/03/27 08:36:05;;;;;;;43.60;25.40;;;;;;;7.62;93.30;103158.84;5069704;28;20028;-76
2022/03/27 08:38:33;;;;;;;47.13;27.08;;;;;;;7.62;93.41;103148.34;5053787;28;20024;-75
2022/03/27 08:41:01;;;;;;;51.40;27.33;;;;;;;7.63;93.46;103155.31;5053885;28;20028;-75
2022/03/27 08:43:31;;;;;;;44.72;26.92;;;;;;;7.62;93.01;103151.84;5070006;28;20024;-76
2022/03/27 08:45:58;;;;;;;46.45;27.48;;;;;;;7.63;93.17;103150.06;5069053;28;20021;-75
2022/03/27 08:48:24;;;;;;;46.28;26.70;;;;;;;7.65;93.08;103148.28;5068000;28;20024;-76
2022/03/27 08:50:58;;;;;;;47.20;27.73;;;;;;;7.70;93.20;103151.63;5069577;28;20020;-76
2022/03/27 08:53:30;;;;;;;49.08;30.95;;;;;;;7.73;93.09;103156.81;5068618;28;20405;-76
2022/03/27 08:56:03;;;;;;;50.57;29.40;;;;;;;7.73;93.22;103152.41;5068830;28;20032;-76
2022/03/27 08:58:35;;;;;;;45.28;27.73;;;;;;;7.75;92.86;103149.75;5068918;28;20278;-75
2022/03/27 09:01:02;;;;;;;46.17;28.27;;;;;;;7.81;92.32;103149.59;5068079;28;20472;-75
2022/03/27 09:03:27;;;;;;;47.60;29.42;;;;;;;7.84;92.30;103149.53;5068647;28;20464;-76
2022/03/27 09:05:53;;;;;;;45.05;27.73;;;;;;;7.85;92.48;103162.59;5083935;28;20112;-76
2022/03/27 09:08:19;;;;;;;46.42;28.23;;;;;;;7.86;92.15;103166.06;5084507;28;20686;-76
2022/03/27 09:10:45;;;;;;;41.80;26.35;;;;;;;7.89;92.08;103157.25;5054352;28;20090;-75
2022/03/27 09:13:16;;;;;;;44.65;27.70;;;;;;;7.90;91.79;103166.84;5047615;28;20032;-75
2022/03/27 09:15:45;;;;;;;40.60;26.27;;;;;;;7.93;91.75;103165.00;5064841;28;20473;-76
2022/03/27 09:18:14;;;;;;;40.20;26.58;;;;;;;7.97;91.12;103171.88;5068238;28;20047;-77
2022/03/27 09:20:47;;;;;;;37.65;25.10;;;;;;;7.98;91.03;103178.84;5067682;28;20511;-76
2022/03/27 09:23:19;;;;;;;34.63;22.98;;;;;;;8.00;90.68;103176.19;5083821;28;20472;-76
2022/03/27 09:25:49;;;;;;;34.08;22.08;;;;;;;7.99;90.35;103180.56;5068124;28;20048;-76
2022/03/27 09:28:34;;;;;;;33.20;18.75;;;;;;;8.05;89.72;103179.56;5067468;28;20020;-76
2022/03/27 09:31:03;;;;;;;27.67;18.70;;;;;;;8.02;89.38;103175.28;5068597;28;20095;-75
2022/03/27 09:33:32;;;;;;;31.17;20.27;;;;;;;7.99;89.31;103177.94;5055516;28;20045;-75
2022/03/27 09:36:05;;;;;;;30.65;20.00;;;;;;;7.98;89.13;103164.88;5046955;28;20029;-76
2022/03/27 09:38:30;;;;;;;28.75;19.77;;;;;;;7.99;88.78;103175.31;5064117;28;20028;-75
2022/03/27 09:40:56;;;;;;;26.38;18.83;;;;;;;7.98;88.73;103163.13;5079378;28;20055;-75
2022/03/27 09:43:22;;;;;;;27.33;18.80;;;;;;;8.00;88.78;103171.81;5048159;28;20481;-75
2022/03/27 09:45:58;;;;;;;25.90;17.45;;;;;;;8.01;88.67;103170.94;5048003;28;20025;-76
2022/03/27 09:48:24;;;;;;;25.80;18.48;;;;;;;7.98;88.46;103160.50;5064294;28;20124;-76
2022/03/27 09:50:52;;;;;;;27.25;18.88;;;;;;;8.01;88.74;103157.81;5067957;28;20017;-75
2022/03/27 09:53:22;;;;;;;27.38;18.85;;;;;;;8.02;88.56;103158.69;5067887;28;20107;-75
2022/03/27 09:55:53;;;;;;;28.15;18.58;;;;;;;8.04;88.67;103154.25;5067860;28;20028;-76
2022/03/27 09:58:40;;;;;;;32.17;21.10;;;;;;;8.10;88.89;103157.56;5067135;28;20036;-75
2022/03/27 10:01:16;;;;;;;29.85;20.40;;;;;;;8.11;88.66;103143.56;5067380;28;20025;-76
2022/03/27 10:04:02;;;;;;;28.08;18.38;;;;;;;8.17;88.57;103143.41;5070505;28;20555;-76
2022/03/27 10:06:41;;;;;;;29.08;20.02;;;;;;;8.21;88.96;103138.06;5070931;28;20035;-76
2022/03/27 10:09:08;;;;;;;32.63;21.20;;;;;;;8.24;88.90;103135.34;5071740;28;20414;-72
2022/03/27 10:11:34;;;;;;;33.05;22.50;;;;;;;8.30;88.85;103129.94;5072470;28;20031;-73
2022/03/27 10:14:00;;;;;;;34.35;23.38;;;;;;;8.33;88.48;103132.47;5071047;28;20024;-72
2022/03/27 10:16:28;;;;;;;30.60;20.52;;;;;;;8.36;88.48;103129.78;5070514;28;20046;-72
2022/03/27 10:19:09;;;;;;;32.75;21.55;;;;;;;8.43;88.42;103129.59;5072099;28;20020;-72
2022/03/27 10:21:36;;;;;;;33.20;22.10;;;;;;;8.46;88.29;103126.91;5072512;28;20025;-73
2022/03/27 10:24:13;;;;;;;31.83;22.30;;;;;;;8.54;88.33;103117.94;5070168;28;20021;-73
2022/03/27 10:26:40;;;;;;;32.17;22.02;;;;;;;8.59;88.00;103114.28;5071869;28;20111;-73
2022/03/27 10:29:07;;;;;;;33.03;22.42;;;;;;;8.64;87.81;103117.63;5070668;28;20051;-72
2022/03/27 10:31:33;;;;;;;34.63;23.70;;;;;;;8.70;87.63;103117.44;5070903;28;20031;-72
2022/03/27 10:34:00;;;;;;;31.90;23.02;;;;;;;8.76;87.18;103113.75;5070937;28;20045;-72
2022/03/27 10:36:28;;;;;;;30.40;21.13;;;;;;;8.83;86.93;103111.84;5071011;28;20612;-72
2022/03/27 10:39:21;;;;;;;30.83;22.30;;;;;;;8.95;87.65;103100.94;5051045;28;20035;-72
2022/03/27 10:42:03;;;;;;;32.00;21.42;;;;;;;9.07;87.12;103106.66;5057860;28;20088;-72
2022/03/27 10:45:09;;;;;;;28.27;21.50;;;;;;;9.19;86.28;103110.66;5069195;28;20059;-73
2022/03/27 10:47:35;;;;;;;29.83;20.95;;;;;;;9.32;85.60;103105.91;5069230;28;20283;-73
2022/03/27 10:50:04;;;;;;;27.67;20.88;;;;;;;9.45;84.98;103106.34;5070661;28;20031;-72
2022/03/27 10:52:34;;;;;;;27.17;20.67;;;;;;;9.62;85.67;103089.13;5070401;28;20427;-73
2022/03/27 10:55:11;;;;;;;30.33;21.27;;;;;;;9.80;84.98;103098.13;5070864;28;20101;-72
2022/03/27 10:57:42;;;;;;;31.05;21.63;;;;;;;10.03;83.66;103095.56;5070379;28;20029;-74
2022/03/27 11:00:11;;;;;;;30.48;20.80;;;;;;;10.24;82.96;103093.97;5068465;28;20563;-73
2022/03/27 11:02:51;;;;;;;29.80;21.70;;;;;;;10.45;82.50;103092.31;5071308;28;20044;-73
2022/03/27 11:05:31;;;;;;;28.13;21.17;;;;;;;10.65;81.58;103083.66;5069764;28;20020;-75
2022/03/27 11:08:18;;;;;;;27.70;20.88;;;;;;;10.91;80.57;103080.03;5070493;28;20032;-73
2022/03/27 11:10:43;;;;;;;30.98;20.55;;;;;;;11.20;79.05;103077.06;5068471;28;20057;-73
2022/03/27 11:13:27;;;;;;;28.42;21.05;;;;;;;11.50;79.07;103076.72;5049180;28;20439;-73
2022/03/27 11:16:05;;;;;;;30.58;20.90;;;;;;;11.78;76.91;103072.03;5068890;28;20480;-75
2022/03/27 11:18:39;;;;;;;28.05;20.38;;;;;;;12.06;75.85;103071.69;5069215;28;20044;-75
2022/03/27 11:21:07;;;;;;;27.63;20.15;;;;;;;12.31;75.50;103060.84;5067934;28;20527;-75
2022/03/27 11:23:36;;;;;;;28.02;20.92;;;;;;;12.49;73.95;103065.28;5049777;28;20028;-75
2022/03/27 11:26:03;;;;;;;28.58;20.83;;;;;;;12.68;74.07;103067.06;5048973;28;20040;-75
2022/03/27 11:29:04;;;;;;;26.75;21.08;;;;;;;12.87;74.63;103060.00;5051239;28;20056;-75